Main page
METAR-TAF:

METAR-TAF

Airports :

Pskov Airport

Pskov, Russia

latitude: 57-47-06N, longitude: 028-23-54E, elevation: 47 m

Current weather observation

The report was made 27 minutes ago, at 04:00 UTC
Wind 4 kt from the North/Northeast, varying between North and East
Temperature 12°C
Humidity 50%
Pressure 1029 hPa
Visibility 10 km or more

METAR: ULOO 260400Z AUTO 03002MPS 350V100 9999 // NCD 12/02 Q1029 RMK QFE768

Time: 07:27 (04:27 UTC)

Forecast

The report was made 2 hours and 32 minutes ago, at 01:55 UTC
Forecast valid from 26 at 03 UTC to 26 at 12 UTC
Wind 6 kt from the North/Northwest
Visibility 10 km or more
Scattered clouds at a height of 3000 ft

TAF: ULOO 260155Z 2603/2612 34003MPS 9999 SCT030

Weather observations and forecasts of more than 4000 airports (METAR and TAF reports).

The available stations are represented by yellow and red dots on the map.

Hover mouse over dot to see the name of the station.

Then click to see weather observations and forecasts.

To change the map : click on the green buttons with a black cross to zoom in, on the green button with a dash to zoom out, or on the green arrows for adjacent maps.


METAR-TAF: